Time;durP1;ratioP1;P1;durP2;ratioP2;P2;SDS_P1;SDS_P2;PMS_P1;PMS_P2;Temp;Humidity;BMP_temperature;BMP_pressure;BME280_temperature;BME280_humidity;BME280_pressure;Samples;Min_cycle;Max_cycle;Signal;HPM_P1;HPM_P2
2023/01/07 14:16:09;;;;;;;4.65;2.72;;;12.80;99.10;;;;;;5129863;27;1294245;-76
2023/01/07 14:18:44;;;;;;;4.22;2.47;;;11.70;99.90;;;;;;5151386;27;20467;-76
2023/01/07 14:21:18;;;;;;;5.57;2.42;;;11.50;99.90;;;;;;5133701;27;20054;-76
2023/01/07 14:24:15;;;;;;;4.05;2.40;;;11.40;99.90;;;;;;5113628;28;20027;-76
2023/01/07 14:27:32;;;;;;;4.72;2.45;;;11.30;99.90;;;;;;5132022;28;20023;-76
2023/01/07 14:30:03;;;;;;;4.18;2.75;;;11.10;99.90;;;;;;5071028;28;20442;-75
2023/01/07 14:32:35;;;;;;;3.00;2.35;;;11.00;99.90;;;;;;5116484;28;20372;-75
2023/01/07 14:35:22;;;;;;;6.13;2.65;;;10.80;99.90;;;;;;5120246;28;20077;-75
2023/01/07 14:37:48;;;;;;;4.18;2.50;;;10.80;99.90;;;;;;5137944;28;20022;-76
2023/01/07 14:40:26;;;;;;;22.42;3.33;;;10.70;99.90;;;;;;5115203;28;20027;-75
2023/01/07 14:42:53;;;;;;;4.22;2.60;;;10.70;99.90;;;;;;5132569;28;20034;-76
2023/01/07 14:45:40;;;;;;;4.07;2.63;;;10.60;99.90;;;;;;5127444;27;20027;-76
2023/01/07 14:48:09;;;;;;;3.90;2.47;;;10.50;99.90;;;;;;5125393;28;20031;-75
2023/01/07 14:51:06;;;;;;;6.00;2.58;;;10.40;99.90;;;;;;5134905;28;20025;-76
2023/01/07 14:54:22;;;;;;;4.03;2.38;;;10.30;99.90;;;;;;5117862;28;20126;-75
2023/01/07 14:57:23;;;;;;;2.88;2.10;;;10.30;99.90;;;;;;5074880;28;20118;-76
2023/01/07 14:59:51;;;;;;;3.30;2.22;;;10.10;99.90;;;;;;5116345;28;20085;-76
2023/01/07 15:02:36;;;;;;;4.70;2.58;;;10.00;99.90;;;;;;5137121;28;20098;-76
2023/01/07 15:05:07;;;;;;;3.13;2.30;;;10.00;99.90;;;;;;5117721;28;20067;-76
2023/01/07 15:07:36;;;;;;;3.35;2.30;;;9.90;99.90;;;;;;5118072;28;20031;-76
2023/01/07 15:16:02;;;;;;;4.70;2.33;;;9.70;99.90;;;;;;5115586;28;20446;-76
2023/01/07 15:19:05;;;;;;;5.88;2.92;;;9.60;99.90;;;;;;5103634;28;20122;-76
2023/01/07 15:24:40;;;;;;;5.97;2.83;;;9.40;99.90;;;;;;5121370;28;20085;-75
2023/01/07 15:30:46;;;;;;;3.90;2.67;;;9.30;99.90;;;;;;5121846;28;20022;-76
2023/01/07 15:33:45;;;;;;;4.93;2.95;;;9.20;99.90;;;;;;5103929;28;20083;-76
2023/01/07 15:36:14;;;;;;;3.70;2.90;;;9.10;99.90;;;;;;5122415;28;20028;-75
2023/01/07 15:38:43;;;;;;;;;;;9.10;99.90;;;;;;5103659;28;20024;-68
2023/01/07 15:41:27;;;;;;;3.00;2.60;;;7.80;99.90;;;;;;5105451;28;20030;-76
2023/01/07 15:44:19;;;;;;;6.35;3.67;;;9.00;99.90;;;;;;5120763;28;20036;-78
2023/01/07 15:46:45;;;;;;;3.85;2.70;;;8.90;99.90;;;;;;5121828;28;20424;-77
2023/01/07 15:49:10;;;;;;;4.10;2.60;;;8.80;99.90;;;;;;5104028;28;20116;-78
2023/01/07 15:51:39;;;;;;;6.43;3.42;;;8.80;99.90;;;;;;5121895;28;20027;-77
2023/01/07 15:54:08;;;;;;;3.28;2.70;;;8.80;99.90;;;;;;5103477;28;20023;-76
2023/01/07 15:56:35;;;;;;;3.75;2.85;;;8.70;99.90;;;;;;5121681;28;20028;-77
2023/01/07 15:59:06;;;;;;;4.78;3.47;;;8.60;99.90;;;;;;5104734;28;20023;-78
2023/01/07 16:01:32;;;;;;;6.53;3.78;;;8.60;99.90;;;;;;5105022;28;20026;-76
2023/01/07 16:03:58;;;;;;;7.38;4.72;;;8.50;99.90;;;;;;5104646;28;20103;-77
2023/01/07 16:06:30;;;;;;;6.88;4.82;;;8.50;99.90;;;;;;5103282;28;20471;-78
2023/01/07 16:09:03;;;;;;;8.63;4.05;;;8.40;99.90;;;;;;5103941;28;20426;-79
2023/01/07 16:11:30;;;;;;;11.85;4.43;;;8.30;99.90;;;;;;5103799;28;20062;-77
2023/01/07 16:14:01;;;;;;;7.07;3.88;;;8.30;99.90;;;;;;5104866;28;20476;-79
2023/01/07 16:16:30;;;;;;;9.20;4.43;;;8.30;99.90;;;;;;5113638;28;20051;-77
2023/01/07 16:19:00;;;;;;;7.00;4.70;;;8.30;99.90;;;;;;5101304;28;20035;-77
2023/01/07 16:21:31;;;;;;;4.88;4.30;;;8.20;99.90;;;;;;5102072;28;20028;-77
2023/01/07 16:23:56;;;;;;;6.15;4.78;;;8.20;99.90;;;;;;5102813;28;20039;-77
2023/01/07 16:26:27;;;;;;;7.30;4.88;;;8.20;99.90;;;;;;5120117;28;20035;-77
2023/01/07 16:29:05;;;;;;;8.00;5.55;;;8.20;99.90;;;;;;5120285;28;20024;-78
2023/01/07 16:31:33;;;;;;;9.30;6.25;;;8.10;99.90;;;;;;5121955;28;20027;-78
2023/01/07 16:34:00;;;;;;;8.32;5.68;;;8.10;99.90;;;;;;5105871;28;20046;-78
2023/01/07 16:36:30;;;;;;;6.68;4.95;;;8.10;99.90;;;;;;5104661;28;20023;-77
2023/01/07 16:38:58;;;;;;;10.38;6.35;;;8.00;99.90;;;;;;5104344;28;20472;-77
2023/01/07 16:41:26;;;;;;;8.30;5.93;;;8.00;99.90;;;;;;5122930;28;20153;-77
2023/01/07 16:43:56;;;;;;;9.27;5.32;;;8.00;99.90;;;;;;5122929;28;20028;-77
2023/01/07 16:46:25;;;;;;;8.88;6.10;;;7.90;99.90;;;;;;5103746;28;20468;-77
2023/01/07 16:49:10;;;;;;;8.20;6.30;;;7.80;99.90;;;;;;5105153;28;20030;-77
2023/01/07 16:52:09;;;;;;;12.93;6.78;;;7.80;99.90;;;;;;5104253;28;20032;-77
2023/01/07 16:54:38;;;;;;;10.85;6.63;;;7.70;99.90;;;;;;5103468;28;20034;-77
2023/01/07 16:57:10;;;;;;;;;;;7.70;99.90;;;;;;5103486;28;20031;-77
2023/01/07 16:59:45;;;;;;;11.80;7.65;;;7.70;99.90;;;;;;5122497;28;19910;-77
2023/01/07 17:02:33;;;;;;;16.30;8.18;;;7.60;99.90;;;;;;5103630;28;20020;-77
2023/01/07 17:05:41;;;;;;;10.70;7.15;;;7.60;99.90;;;;;;5103233;28;20035;-78
2023/01/07 17:08:15;;;;;;;;;;;7.50;99.90;;;;;;5103151;28;20024;-78
2023/01/07 17:10:57;;;;;;;13.43;8.77;;;7.50;99.90;;;;;;5122339;28;19953;-77
2023/01/07 17:13:23;;;;;;;11.98;8.68;;;7.40;99.90;;;;;;5120757;28;20388;-77
2023/01/07 17:15:48;;;;;;;15.80;9.57;;;7.40;99.90;;;;;;5121897;28;20046;-76
2023/01/07 17:18:14;;;;;;;14.20;9.70;;;7.30;99.90;;;;;;5121226;28;20020;-78
2023/01/07 17:20:51;;;;;;;14.85;10.00;;;7.30;99.90;;;;;;5102023;28;20028;-76
2023/01/07 17:23:26;;;;;;;14.90;10.07;;;7.20;99.90;;;;;;5121677;28;20063;-78
2023/01/07 17:26:10;;;;;;;14.02;10.45;;;7.20;99.90;;;;;;5102945;28;20040;-77
2023/01/07 17:28:48;;;;;;;18.65;12.57;;;7.10;99.90;;;;;;5103032;28;20023;-78
2023/01/07 17:31:14;;;;;;;19.95;11.75;;;7.10;99.90;;;;;;5120970;28;20032;-77
2023/01/07 17:33:41;;;;;;;16.40;11.13;;;7.00;99.90;;;;;;5120758;28;20027;-76
2023/01/07 17:36:17;;;;;;;19.50;12.18;;;7.00;99.90;;;;;;5119898;28;20016;-76
2023/01/07 17:38:43;;;;;;;17.02;11.63;;;6.90;99.90;;;;;;5102103;28;20039;-76
2023/01/07 17:44:13;;;;;;;19.50;12.52;;;6.80;99.90;;;;;;5096797;28;20122;-76
2023/01/07 17:46:39;;;;;;;18.70;12.60;;;6.80;99.90;;;;;;5102720;28;20027;-77
2023/01/07 17:49:05;;;;;;;19.83;12.90;;;6.80;99.90;;;;;;5102316;28;20031;-77
2023/01/07 17:51:34;;;;;;;23.33;13.48;;;6.70;99.90;;;;;;5103514;28;20041;-77
2023/01/07 17:53:59;;;;;;;24.63;14.43;;;6.70;99.90;;;;;;5103136;28;20027;-77
2023/01/07 17:56:25;;;;;;;17.95;12.68;;;6.60;99.90;;;;;;5102432;28;20491;-77
2023/01/07 17:58:51;;;;;;;21.27;12.23;;;6.50;99.90;;;;;;5120430;28;20028;-77
2023/01/07 18:01:20;;;;;;;26.25;15.15;;;6.40;99.90;;;;;;5120558;28;20023;-78
2023/01/07 18:03:46;;;;;;;;;;;6.30;99.90;;;;;;5120752;28;20035;-77
2023/01/07 18:06:19;;;;;;;22.35;14.02;;;6.30;99.90;;;;;;5122441;28;19904;-77
2023/01/07 18:08:46;;;;;;;26.23;15.93;;;6.20;99.90;;;;;;5122077;28;20030;-77
2023/01/07 18:13:59;;;;;;;29.58;18.45;;;6.20;99.90;;;;;;5123055;28;20084;-78
2023/01/07 18:16:25;;;;;;;27.00;16.55;;;6.10;99.90;;;;;;5103758;28;20083;-78
2023/01/07 18:18:51;;;;;;;28.20;18.60;;;6.10;99.90;;;;;;5102967;28;20030;-79
2023/01/07 18:21:16;;;;;;;29.02;19.38;;;6.10;99.90;;;;;;5121218;28;20023;-79
2023/01/07 18:23:44;;;;;;;35.67;19.23;;;6.00;99.90;;;;;;5120411;28;20035;-78
2023/01/07 18:26:11;;;;;;;30.23;18.75;;;6.00;99.90;;;;;;5103686;28;20027;-79
2023/01/07 18:28:37;;;;;;;32.58;18.88;;;6.00;99.90;;;;;;5102611;28;20020;-75
2023/01/07 18:31:03;;;;;;;34.30;20.45;;;5.90;99.90;;;;;;5102446;28;20027;-81
2023/01/07 18:33:29;;;;;;;30.40;19.30;;;5.90;99.90;;;;;;5121101;28;20384;-77
2023/01/07 18:35:55;;;;;;;29.40;19.38;;;5.90;99.90;;;;;;5120188;28;20032;-77
2023/01/07 18:38:20;;;;;;;30.40;19.15;;;5.90;99.90;;;;;;5120434;28;20028;-78
2023/01/07 18:40:46;;;;;;;30.73;19.73;;;5.90;99.90;;;;;;5120243;28;20023;-78
2023/01/07 18:43:17;;;;;;;31.92;19.23;;;5.80;99.90;;;;;;5102072;28;20027;-79
2023/01/07 18:45:44;;;;;;;31.75;19.20;;;5.80;99.90;;;;;;5102956;28;20062;-77
2023/01/07 18:48:12;;;;;;;29.80;16.95;;;5.80;99.90;;;;;;5120797;28;20031;-78
2023/01/07 18:50:47;;;;;;;33.15;19.45;;;5.80;99.90;;;;;;5118093;27;20046;-78
2023/01/07 18:53:13;;;;;;;28.38;16.77;;;5.70;99.90;;;;;;5124298;27;20042;-79
2023/01/07 18:55:40;;;;;;;28.33;18.35;;;5.70;99.90;;;;;;5140891;27;20098;-79
2023/01/07 18:58:11;;;;;;;29.58;17.10;;;5.70;99.90;;;;;;5141756;27;20028;-77
2023/01/07 19:00:37;;;;;;;26.77;17.27;;;5.60;99.90;;;;;;5141362;27;20022;-77
2023/01/07 19:03:03;;;;;;;29.63;16.88;;;5.60;99.90;;;;;;5121911;27;20031;-78
2023/01/07 19:05:28;;;;;;;31.77;19.60;;;5.60;99.90;;;;;;5143975;27;20029;-78
2023/01/07 19:07:54;;;;;;;30.08;18.67;;;5.60;99.90;;;;;;5144174;27;20367;-77
2023/01/07 19:10:21;;;;;;;28.90;18.20;;;5.60;99.90;;;;;;5146411;27;20034;-77
2023/01/07 19:12:47;;;;;;;29.63;19.17;;;5.60;99.90;;;;;;5144891;27;20115;-77
2023/01/07 19:15:13;;;;;;;33.47;19.80;;;5.50;99.90;;;;;;5126418;27;20035;-78
2023/01/07 19:17:38;;;;;;;30.73;18.10;;;5.50;99.90;;;;;;5126924;27;20043;-80
2023/01/07 19:20:05;;;;;;;31.45;19.80;;;5.50;99.90;;;;;;5122409;27;20023;-61
2023/01/07 19:22:30;;;;;;;32.90;20.17;;;5.50;99.90;;;;;;5137679;27;20023;-64
2023/01/07 19:24:56;;;;;;;29.88;20.05;;;5.50;99.90;;;;;;5138670;27;20080;-76
2023/01/07 19:27:23;;;;;;;33.20;21.33;;;5.60;99.90;;;;;;5121794;27;20456;-75
2023/01/07 19:29:48;;;;;;;32.25;19.25;;;5.60;99.90;;;;;;5121875;27;20023;-76
2023/01/07 19:32:14;;;;;;;30.52;20.95;;;5.60;99.90;;;;;;5122549;27;20436;-75
2023/01/07 19:34:40;;;;;;;34.13;20.75;;;5.60;99.90;;;;;;5124098;27;20030;-76
2023/01/07 19:37:06;;;;;;;33.45;21.25;;;5.60;99.90;;;;;;5123474;27;20482;-76
2023/01/07 19:39:32;;;;;;;34.75;21.00;;;5.70;99.90;;;;;;5140323;27;20028;-77
2023/01/07 19:41:58;;;;;;;36.33;22.52;;;5.70;99.90;;;;;;5139393;27;20031;-76
2023/01/07 19:44:23;;;;;;;36.28;22.52;;;5.80;99.90;;;;;;5140069;27;20030;-78
2023/01/07 19:46:49;;;;;;;37.88;22.27;;;5.80;99.90;;;;;;5139488;27;20405;-78
2023/01/07 19:49:15;;;;;;;34.85;21.10;;;5.80;99.90;;;;;;5140115;27;20062;-77
2023/01/07 19:51:41;;;;;;;41.53;23.73;;;5.90;99.90;;;;;;5121278;27;20357;-77
2023/01/07 19:54:11;;;;;;;33.92;21.48;;;5.90;99.90;;;;;;5122016;27;20114;-77
2023/01/07 19:56:39;;;;;;;35.30;21.65;;;6.00;99.90;;;;;;5139684;27;20107;-77
2023/01/07 19:59:04;;;;;;;31.73;19.70;;;6.00;99.90;;;;;;5137913;27;20023;-76
2023/01/07 20:01:30;;;;;;;33.53;21.13;;;6.00;99.90;;;;;;5137408;27;20391;-77
2023/01/07 20:03:57;;;;;;;34.28;21.73;;;6.10;99.90;;;;;;5137124;27;20048;-77
2023/01/07 20:06:26;;;;;;;34.70;22.13;;;6.10;99.90;;;;;;5137441;27;20030;-77
2023/01/07 20:08:54;;;;;;;36.88;23.15;;;6.10;99.90;;;;;;5137676;27;20023;-77
2023/01/07 20:11:20;;;;;;;36.05;22.85;;;6.10;99.90;;;;;;5136920;27;20097;-77
2023/01/07 20:13:47;;;;;;;40.28;23.63;;;6.10;99.90;;;;;;5118594;27;20031;-76
2023/01/07 20:16:21;;;;;;;36.67;22.80;;;6.20;99.90;;;;;;5137157;27;20412;-77
2023/01/07 20:18:50;;;;;;;38.55;23.17;;;6.20;99.90;;;;;;5137483;27;20098;-77
2023/01/07 20:21:18;;;;;;;40.70;25.75;;;6.20;99.90;;;;;;5118324;27;20025;-76
2023/01/07 20:23:44;;;;;;;40.08;24.92;;;6.30;99.90;;;;;;5136821;27;20031;-76
2023/01/07 20:26:22;;;;;;;39.35;24.88;;;6.30;99.90;;;;;;5138371;27;20023;-78
2023/01/07 20:28:48;;;;;;;43.88;26.35;;;6.30;99.90;;;;;;5137003;27;20023;-70
2023/01/07 20:31:16;;;;;;;37.70;25.33;;;6.30;99.90;;;;;;5137723;27;20472;-71
2023/01/07 20:33:43;;;;;;;35.80;24.35;;;6.30;99.90;;;;;;5118952;27;20096;-70
2023/01/07 20:36:13;;;;;;;38.97;24.75;;;6.30;99.90;;;;;;5137413;27;20064;-77
2023/01/07 20:38:39;;;;;;;35.63;23.65;;;6.30;99.90;;;;;;5119982;27;20058;-77
2023/01/07 20:41:07;;;;;;;35.97;23.88;;;6.30;99.90;;;;;;5119623;27;20023;-77
2023/01/07 20:43:34;;;;;;;38.25;24.33;;;6.20;99.90;;;;;;5102686;27;20388;-77
2023/01/07 20:46:03;;;;;;;36.38;23.65;;;6.20;99.90;;;;;;5118448;27;20384;-76
2023/01/07 20:48:29;;;;;;;38.08;25.17;;;6.20;99.90;;;;;;5118050;27;20031;-77
2023/01/07 20:50:55;;;;;;;39.30;24.63;;;6.20;99.90;;;;;;5136382;27;20391;-78
2023/01/07 20:53:21;;;;;;;37.80;25.20;;;6.20;99.90;;;;;;5117629;27;20062;-77
2023/01/07 20:55:50;;;;;;;38.35;24.77;;;6.20;99.90;;;;;;5117963;27;20114;-77
2023/01/07 20:58:16;;;;;;;41.17;26.02;;;6.20;99.90;;;;;;5117737;27;20023;-77
2023/01/07 21:00:41;;;;;;;44.40;27.15;;;6.20;99.90;;;;;;5117837;27;20034;-76
2023/01/07 21:03:07;;;;;;;38.45;25.17;;;6.20;99.90;;;;;;5117923;27;20047;-75
2023/01/07 21:05:33;;;;;;;40.00;25.65;;;6.20;99.90;;;;;;5118063;27;20023;-76
2023/01/07 21:07:59;;;;;;;38.75;25.77;;;6.20;99.90;;;;;;5118348;27;20079;-77
2023/01/07 21:10:25;;;;;;;35.63;24.77;;;6.30;99.90;;;;;;5136738;27;20148;-77
2023/01/07 21:12:51;;;;;;;39.63;26.48;;;6.30;99.90;;;;;;5117203;27;20033;-77
2023/01/07 21:15:17;;;;;;;39.58;25.77;;;6.30;99.90;;;;;;5136023;27;20020;-76
2023/01/07 21:17:43;;;;;;;39.05;25.70;;;6.30;99.90;;;;;;5114501;28;20661;-77
2023/01/07 21:20:12;;;;;;;38.60;26.13;;;6.30;99.90;;;;;;5114827;28;20019;-76
2023/01/07 21:22:37;;;;;;;43.30;26.98;;;6.30;99.90;;;;;;5116483;28;20088;-76
2023/01/07 21:25:10;;;;;;;44.65;28.40;;;6.30;99.90;;;;;;5115125;28;20039;-76
2023/01/07 21:27:37;;;;;;;44.10;27.35;;;6.20;99.90;;;;;;5116671;28;20024;-75
2023/01/07 21:30:04;;;;;;;47.78;28.52;;;6.20;99.90;;;;;;5115560;28;20020;-75
2023/01/07 21:32:30;;;;;;;48.45;29.13;;;6.20;99.90;;;;;;5117166;28;20050;-76
2023/01/07 21:34:56;;;;;;;48.55;29.48;;;6.20;99.90;;;;;;5116902;28;20464;-76
2023/01/07 21:37:21;;;;;;;45.97;29.40;;;6.20;99.90;;;;;;5116702;28;20027;-76
2023/01/07 21:39:47;;;;;;;45.60;28.00;;;6.20;99.90;;;;;;5115037;28;20030;-75
2023/01/07 21:42:13;;;;;;;54.28;29.50;;;6.20;99.90;;;;;;5115858;28;20051;-75
2023/01/07 21:44:38;;;;;;;49.83;29.08;;;6.20;99.90;;;;;;5115572;28;20035;-76
2023/01/07 21:47:04;;;;;;;46.05;28.15;;;6.20;99.90;;;;;;5113920;28;20031;-77
2023/01/07 21:49:30;;;;;;;48.42;29.92;;;6.20;99.90;;;;;;5115371;28;20527;-76
2023/01/07 21:51:57;;;;;;;47.15;28.67;;;6.20;99.90;;;;;;5114466;28;20058;-76
2023/01/07 21:54:23;;;;;;;48.33;29.92;;;6.10;99.90;;;;;;5115044;28;20118;-77
2023/01/07 21:56:49;;;;;;;48.53;29.45;;;6.20;99.90;;;;;;5114936;28;20444;-76
2023/01/07 21:59:14;;;;;;;48.63;28.63;;;6.20;99.90;;;;;;5113760;28;20051;-76
2023/01/07 22:01:40;;;;;;;50.10;29.48;;;6.10;99.90;;;;;;5115501;28;20035;-76
2023/01/07 22:04:06;;;;;;;49.35;30.15;;;6.10;99.90;;;;;;5115722;28;20024;-76
2023/01/07 22:06:36;;;;;;;47.85;30.05;;;6.10;99.90;;;;;;5114413;28;20084;-75
2023/01/07 22:09:05;;;;;;;52.22;31.13;;;6.10;99.90;;;;;;5115233;28;20027;-75
2023/01/07 22:11:31;;;;;;;;;;;6.10;99.90;;;;;;5114639;28;20027;-76
2023/01/07 22:13:58;;;;;;;45.00;27.98;;;6.10;99.90;;;;;;5114728;28;19908;-75
2023/01/07 22:16:26;;;;;;;48.75;29.17;;;6.00;99.90;;;;;;5112633;28;20047;-76
2023/01/07 22:18:52;;;;;;;48.05;30.30;;;5.90;99.90;;;;;;5113177;28;20447;-76
2023/01/07 22:21:18;;;;;;;50.85;29.48;;;5.90;99.90;;;;;;5114111;28;20043;-76
2023/01/07 22:23:45;;;;;;;53.80;30.20;;;6.00;99.90;;;;;;5112915;28;20032;-76
2023/01/07 22:26:13;;;;;;;48.22;29.60;;;5.90;99.90;;;;;;5116157;28;20024;-76
2023/01/07 22:28:39;;;;;;;52.88;31.35;;;5.90;99.90;;;;;;5117444;28;20031;-77
2023/01/07 22:34:14;;;;;;;51.50;31.23;;;5.90;99.90;;;;;;5113707;28;20088;-78
2023/01/07 22:36:52;;;;;;;53.67;31.20;;;5.90;99.90;;;;;;5116830;28;20019;-77
2023/01/07 22:39:24;;;;;;;51.72;30.38;;;5.90;99.90;;;;;;5118487;28;20422;-77
2023/01/07 22:41:57;;;;;;;50.88;31.10;;;5.90;99.90;;;;;;5118180;28;20038;-76
2023/01/07 22:44:35;;;;;;;54.13;30.20;;;5.90;99.90;;;;;;5116994;28;20539;-76
2023/01/07 22:47:02;;;;;;;50.42;30.65;;;5.80;99.90;;;;;;5116876;28;20073;-77
2023/01/07 22:49:29;;;;;;;55.95;30.48;;;5.80;99.90;;;;;;5118639;28;20063;-77
2023/01/07 22:51:55;;;;;;;54.38;30.92;;;5.80;99.90;;;;;;5118043;28;20016;-76
2023/01/07 22:54:23;;;;;;;56.80;30.90;;;5.70;99.90;;;;;;5117364;28;20165;-77
2023/01/07 22:56:49;;;;;;;53.45;31.60;;;5.80;99.90;;;;;;5117311;28;20030;-78
2023/01/07 22:59:14;;;;;;;58.47;33.03;;;5.70;99.90;;;;;;5118892;28;20027;-76
2023/01/07 23:01:40;;;;;;;58.53;31.77;;;5.70;99.90;;;;;;5117114;28;20483;-77
2023/01/07 23:04:06;;;;;;;57.08;30.60;;;5.70;99.90;;;;;;5117865;28;20032;-77
2023/01/07 23:06:32;;;;;;;51.25;30.50;;;5.70;99.90;;;;;;5117899;28;20027;-77
2023/01/07 23:08:58;;;;;;;56.42;30.08;;;5.60;99.90;;;;;;5116714;28;20028;-78
2023/01/07 23:14:07;;;;;;;61.38;28.83;;;5.50;99.90;;;;;;5117376;28;20115;-78
2023/01/07 23:16:36;;;;;;;60.35;31.30;;;5.50;99.90;;;;;;5128057;27;20083;-77
2023/01/07 23:19:02;;;;;;;108.82;33.47;;;5.40;99.90;;;;;;5137979;27;20069;-77
2023/01/07 23:21:30;;;;;;;66.35;31.83;;;5.30;99.90;;;;;;5120127;27;20027;-76
2023/01/07 23:23:58;;;;;;;122.77;31.87;;;5.20;99.90;;;;;;5138809;27;20027;-77
2023/01/07 23:26:23;;;;;;;101.32;32.85;;;5.10;99.90;;;;;;5140997;27;20271;-77
2023/01/07 23:28:49;;;;;;;71.85;34.88;;;5.00;99.90;;;;;;5121807;27;20460;-77
2023/01/07 23:31:15;;;;;;;91.10;36.35;;;5.00;99.90;;;;;;5122322;27;20025;-77
2023/01/07 23:33:40;;;;;;;81.88;36.47;;;5.00;99.90;;;;;;5121025;27;20035;-78
2023/01/07 23:36:08;;;;;;;104.53;37.35;;;5.00;99.90;;;;;;5139564;27;20023;-78
2023/01/07 23:38:34;;;;;;;77.68;37.08;;;5.00;99.90;;;;;;5139027;27;20028;-77
2023/01/07 23:41:05;;;;;;;81.32;35.95;;;5.00;99.90;;;;;;5138896;27;20015;-76
2023/01/07 23:43:31;;;;;;;85.95;36.95;;;5.00;99.90;;;;;;5121051;27;20027;-77
2023/01/07 23:45:58;;;;;;;84.75;35.67;;;5.00;99.90;;;;;;5122910;27;20028;-78
2023/01/07 23:48:26;;;;;;;89.50;34.85;;;5.10;99.90;;;;;;5141403;27;20027;-77
2023/01/07 23:50:52;;;;;;;93.05;35.15;;;5.00;99.90;;;;;;5123513;27;20475;-78
2023/01/07 23:53:17;;;;;;;103.35;34.90;;;5.00;99.90;;;;;;5141094;27;20053;-77
2023/01/07 23:55:54;;;;;;;150.93;32.42;;;5.00;99.90;;;;;;5140925;27;20035;-77
2023/01/07 23:58:21;;;;;;;75.68;31.92;;;5.00;99.90;;;;;;5123724;27;20045;-76
